createdAt,value
2019-04-26T00:02:22.886Z,17.28
2019-04-26T00:04:53.445Z,17.15
2019-04-26T00:07:23.873Z,17.02
2019-04-26T00:09:57.486Z,16.90
2019-04-26T00:12:43.619Z,16.81
2019-04-26T00:15:16.398Z,16.75
2019-04-26T00:17:50.462Z,16.68
2019-04-26T00:20:19.899Z,16.60
2019-04-26T00:22:51.187Z,16.51
2019-04-26T00:25:23.438Z,16.44
2019-04-26T00:27:53.650Z,16.36
2019-04-26T00:30:23.221Z,16.32
2019-04-26T00:32:53.053Z,16.30
2019-04-26T00:35:22.654Z,16.28
2019-04-26T00:37:52.087Z,16.25
2019-04-26T00:40:22.468Z,16.25
2019-04-26T00:42:54.517Z,16.26
2019-04-26T00:45:26.012Z,16.25
2019-04-26T00:47:56.082Z,16.24
2019-04-26T00:50:25.838Z,16.29
2019-04-26T00:52:56.197Z,16.20
2019-04-26T00:55:26.374Z,16.14
2019-04-26T00:57:56.123Z,16.15
2019-04-26T01:00:26.063Z,16.11
2019-04-26T01:02:56.942Z,16.11
2019-04-26T01:05:27.359Z,16.06
2019-04-26T01:07:57.637Z,15.98
2019-04-26T01:10:27.204Z,15.91
2019-04-26T01:12:56.606Z,15.85
2019-04-26T01:15:26.637Z,15.76
2019-04-26T01:17:56.263Z,15.70
2019-04-26T01:20:27.846Z,15.61
2019-04-26T01:23:00.723Z,15.57
2019-04-26T01:25:51.116Z,15.57
2019-04-26T01:28:29.518Z,15.58
2019-04-26T01:31:02.287Z,15.59
2019-04-26T01:33:34.333Z,15.57
2019-04-26T01:36:12.783Z,15.53
2019-04-26T01:38:35.785Z,15.51
2019-04-26T01:41:07.985Z,15.48
2019-04-26T01:43:56.922Z,15.43
2019-04-26T01:46:33.614Z,15.42
2019-04-26T01:49:12.584Z,15.36
2019-04-26T01:51:47.682Z,15.31
2019-04-26T01:54:20.145Z,15.30
2019-04-26T01:56:52.550Z,15.26
2019-04-26T01:59:23.594Z,15.22
2019-04-26T02:02:04.755Z,15.24
2019-04-26T02:04:35.979Z,15.26
2019-04-26T02:07:05.896Z,15.20
2019-04-26T02:09:35.479Z,15.15
2019-04-26T02:12:05.437Z,15.09
2019-04-26T02:14:35.196Z,15.06
2019-04-26T02:17:04.883Z,15.06
2019-04-26T02:19:34.734Z,15.08
2019-04-26T02:22:13.297Z,15.03
2019-04-26T02:24:44.760Z,15.00
2019-04-26T02:27:16.354Z,15.00
2019-04-26T02:29:45.794Z,14.88
2019-04-26T02:32:15.299Z,14.87
2019-04-26T02:34:44.966Z,14.87
2019-04-26T02:37:16.695Z,14.81
2019-04-26T02:39:49.941Z,14.77
2019-04-26T02:42:22.410Z,14.71
2019-04-26T02:45:20.882Z,14.70
2019-04-26T02:47:57.256Z,14.70
2019-04-26T02:50:31.136Z,14.65
2019-04-26T02:53:13.229Z,14.69
2019-04-26T02:56:12.944Z,14.73
2019-04-26T02:58:45.419Z,14.74
2019-04-26T03:01:14.907Z,14.66
2019-04-26T03:03:45.550Z,14.60
2019-04-26T03:06:15.410Z,14.61
2019-04-26T03:08:45.583Z,14.53
2019-04-26T03:11:18.107Z,14.46
2019-04-26T03:13:57.855Z,14.39
2019-04-26T03:16:39.275Z,14.37
2019-04-26T03:19:13.988Z,14.26
2019-04-26T03:22:05.873Z,14.26
2019-04-26T03:25:02.867Z,14.25
2019-04-26T03:27:40.984Z,14.18
2019-04-26T03:30:22.386Z,14.11
2019-04-26T03:32:58.713Z,14.16
2019-04-26T03:35:43.947Z,14.11
2019-04-26T03:38:14.565Z,14.09
2019-04-26T03:40:57.440Z,13.97
2019-04-26T03:43:36.824Z,13.92
2019-04-26T03:46:24.194Z,13.91
2019-04-26T03:49:13.553Z,13.87
2019-04-26T03:51:51.867Z,13.84
2019-04-26T03:54:26.946Z,13.79
2019-04-26T03:57:18.672Z,13.63
2019-04-26T04:00:10.647Z,13.60
2019-04-26T04:02:50.230Z,13.54
2019-04-26T04:05:37.904Z,13.51
2019-04-26T04:08:10.926Z,13.51
2019-04-26T04:10:49.201Z,13.49
2019-04-26T04:13:40.209Z,13.49
2019-04-26T04:16:29.712Z,13.51
2019-04-26T04:19:27.243Z,13.50
2019-04-26T04:22:08.495Z,13.44
2019-04-26T04:24:53.406Z,13.44
2019-04-26T04:27:40.133Z,13.45
2019-04-26T04:30:34.405Z,13.39
2019-04-26T04:33:12.313Z,13.42
2019-04-26T04:35:50.456Z,13.43
2019-04-26T04:38:46.280Z,13.46
2019-04-26T04:41:26.743Z,13.41
2019-04-26T04:44:34.282Z,13.39
2019-04-26T04:47:24.424Z,13.44
2019-04-26T04:49:59.130Z,13.50
2019-04-26T04:52:37.626Z,13.47
2019-04-26T04:55:29.612Z,13.53
2019-04-26T04:58:10.851Z,13.46
2019-04-26T05:01:07.367Z,13.39
2019-04-26T05:03:51.838Z,13.39
2019-04-26T05:06:38.025Z,13.52
2019-04-26T05:09:13.180Z,13.59
2019-04-26T05:12:09.136Z,13.55
2019-04-26T05:14:52.830Z,13.59
2019-04-26T05:17:40.357Z,13.55
2019-04-26T05:20:26.038Z,13.60
2019-04-26T05:23:04.455Z,13.58
2019-04-26T05:26:11.665Z,13.66
2019-04-26T05:29:01.422Z,13.69
2019-04-26T05:31:42.601Z,13.72
2019-04-26T05:34:16.736Z,13.75
2019-04-26T05:37:23.998Z,13.81
2019-04-26T05:40:11.615Z,13.83
2019-04-26T05:43:19.114Z,13.74
2019-04-26T05:46:12.244Z,13.75
2019-04-26T05:48:49.276Z,13.82
2019-04-26T05:51:45.551Z,13.85
2019-04-26T05:54:43.831Z,13.90
2019-04-26T05:57:20.853Z,13.83
2019-04-26T06:00:01.138Z,13.85
2019-04-26T06:02:52.978Z,13.91
2019-04-26T06:05:27.103Z,13.93
2019-04-26T06:08:31.199Z,14.02
2019-04-26T06:11:15.584Z,14.08
2019-04-26T06:14:07.715Z,14.30
2019-04-26T06:16:52.131Z,14.36
2019-04-26T06:19:46.099Z,14.39
2019-04-26T06:22:33.412Z,14.42
2019-04-26T06:25:25.782Z,14.52
2019-04-26T06:28:02.644Z,14.57
2019-04-26T06:30:50.587Z,14.62
2019-04-26T06:33:35.081Z,14.69
2019-04-26T06:36:08.673Z,14.73
2019-04-26T06:38:57.928Z,14.79
2019-04-26T06:41:40.707Z,14.78
2019-04-26T06:44:20.349Z,14.82
2019-04-26T06:47:19.607Z,14.94
2019-04-26T06:50:23.442Z,15.04
2019-04-26T06:53:17.187Z,15.13
2019-04-26T06:56:05.053Z,15.23
2019-04-26T06:58:46.839Z,15.30
2019-04-26T07:01:24.017Z,15.37
2019-04-26T07:04:08.450Z,15.46
2019-04-26T07:06:43.659Z,15.63
2019-04-26T07:09:15.656Z,15.76
2019-04-26T07:12:11.680Z,15.88
2019-04-26T07:15:04.069Z,15.84
2019-04-26T07:17:53.180Z,15.89
2019-04-26T07:20:28.755Z,16.10
2019-04-26T07:23:43.794Z,16.10
2019-04-26T07:26:40.818Z,16.08
2019-04-26T07:29:29.413Z,16.19
2019-04-26T07:32:24.862Z,16.27
2019-04-26T07:35:15.572Z,16.41
2019-04-26T07:38:12.026Z,16.41
2019-04-26T07:41:05.148Z,16.46
2019-04-26T07:44:03.716Z,16.74
2019-04-26T07:46:42.441Z,16.85
2019-04-26T07:49:48.322Z,16.88
2019-04-26T07:52:23.638Z,16.86
2019-04-26T07:55:26.791Z,17.08
2019-04-26T07:58:15.540Z,17.04
2019-04-26T08:00:58.786Z,17.05
2019-04-26T08:03:43.034Z,17.04
2019-04-26T08:06:15.583Z,16.96
2019-04-26T08:08:53.705Z,16.91
2019-04-26T08:11:28.761Z,16.70
2019-04-26T08:14:25.141Z,16.65
2019-04-26T08:17:20.946Z,16.69
2019-04-26T08:20:06.906Z,16.64
2019-04-26T08:22:37.935Z,16.74
2019-04-26T08:25:10.392Z,16.88
2019-04-26T08:27:44.002Z,17.01
2019-04-26T08:30:19.054Z,17.31
2019-04-26T08:32:56.765Z,17.52
2019-04-26T08:35:29.741Z,17.57
2019-04-26T08:38:02.371Z,17.65
2019-04-26T08:40:35.103Z,17.73
2019-04-26T08:43:27.328Z,17.65
2019-04-26T08:46:12.576Z,17.75
2019-04-26T08:48:46.449Z,17.73
2019-04-26T08:51:20.588Z,17.47
2019-04-26T08:53:52.916Z,17.42
2019-04-26T08:56:30.895Z,17.45
2019-04-26T08:59:03.980Z,17.42
2019-04-26T09:01:46.930Z,17.67
2019-04-26T09:04:19.122Z,17.67
2019-04-26T09:07:05.235Z,17.83
2019-04-26T09:09:37.909Z,17.51
2019-04-26T09:12:22.275Z,17.61
2019-04-26T09:14:44.639Z,17.65
2019-04-26T09:17:14.208Z,17.74
2019-04-26T09:19:43.756Z,17.98
2019-04-26T09:22:27.700Z,17.97
2019-04-26T09:25:08.898Z,17.92
2019-04-26T09:27:40.039Z,17.79
2019-04-26T09:30:33.091Z,17.77
2019-04-26T09:32:53.391Z,17.92
2019-04-26T09:35:22.878Z,17.96
2019-04-26T09:37:52.442Z,18.15
2019-04-26T09:40:22.876Z,18.20
2019-04-26T09:42:57.102Z,18.25
2019-04-26T09:45:30.744Z,18.27
2019-04-26T09:48:04.684Z,18.25
2019-04-26T09:50:37.355Z,17.94
2019-04-26T09:53:09.909Z,17.73
2019-04-26T09:55:39.360Z,17.69
2019-04-26T09:58:08.866Z,17.64
2019-04-26T10:00:38.708Z,17.70
2019-04-26T10:03:09.539Z,17.91
2019-04-26T10:05:39.828Z,18.01
2019-04-26T10:08:13.076Z,18.01
2019-04-26T10:10:41.427Z,17.89
2019-04-26T10:13:15.011Z,17.86
2019-04-26T10:15:48.367Z,17.77
2019-04-26T10:18:20.386Z,17.68
2019-04-26T10:20:50.658Z,17.51
2019-04-26T10:23:20.094Z,17.37
2019-04-26T10:25:51.994Z,17.09
2019-04-26T10:28:20.792Z,17.03
2019-04-26T10:30:50.907Z,16.88
2019-04-26T10:33:23.337Z,16.83
2019-04-26T10:35:56.778Z,16.89
2019-04-26T10:38:25.437Z,16.97
2019-04-26T10:40:54.982Z,17.06
2019-04-26T10:43:29.583Z,17.17
2019-04-26T10:45:59.156Z,17.01
2019-04-26T10:48:28.599Z,16.94
2019-04-26T10:50:58.131Z,16.86
2019-04-26T10:53:42.933Z,16.75
2019-04-26T10:56:20.241Z,16.93
2019-04-26T10:58:56.281Z,16.99
2019-04-26T11:01:25.951Z,16.90
2019-04-26T11:03:55.501Z,16.89
2019-04-26T11:06:27.936Z,16.71
2019-04-26T11:08:56.692Z,16.69
2019-04-26T11:11:26.285Z,16.70
2019-04-26T11:13:57.576Z,16.41
2019-04-26T11:16:27.260Z,16.34
2019-04-26T11:18:57.143Z,16.12
2019-04-26T11:21:28.084Z,16.17
2019-04-26T11:23:58.056Z,16.06
2019-04-26T11:26:27.463Z,16.05
2019-04-26T11:29:01.425Z,16.15
2019-04-26T11:31:31.426Z,16.18
2019-04-26T11:34:05.322Z,16.13
2019-04-26T11:36:32.074Z,16.14
2019-04-26T11:39:05.480Z,16.12
2019-04-26T11:41:37.516Z,15.95
2019-04-26T11:44:07.060Z,15.79
2019-04-26T11:46:44.582Z,15.72
2019-04-26T11:49:08.305Z,15.86
2019-04-26T11:51:43.912Z,15.82
2019-04-26T11:54:13.348Z,15.83
2019-04-26T11:56:42.952Z,15.91
2019-04-26T11:59:12.541Z,15.92
2019-04-26T12:01:44.778Z,15.93
2019-04-26T12:04:24.884Z,16.10
2019-04-26T12:07:02.466Z,16.28
2019-04-26T12:09:42.501Z,16.19
2019-04-26T12:12:15.778Z,16.42
2019-04-26T12:14:45.250Z,16.72
2019-04-26T12:17:15.850Z,16.80
2019-04-26T12:19:48.228Z,16.67
2019-04-26T12:22:16.702Z,16.74
2019-04-26T12:24:46.224Z,16.62
2019-04-26T12:27:15.861Z,16.49
2019-04-26T12:29:48.266Z,16.50
2019-04-26T12:32:18.679Z,16.48
2019-04-26T12:34:48.273Z,16.40
2019-04-26T12:37:20.038Z,16.54
2019-04-26T12:39:48.912Z,16.51
2019-04-26T12:42:20.053Z,16.53
2019-04-26T12:44:52.271Z,16.55
2019-04-26T12:47:23.588Z,16.50
2019-04-26T12:49:54.564Z,16.39
2019-04-26T12:52:24.667Z,16.36
2019-04-26T12:54:54.320Z,16.21
2019-04-26T12:57:25.985Z,16.18
2019-04-26T12:59:57.475Z,16.05
2019-04-26T13:02:28.512Z,15.97
2019-04-26T13:04:57.945Z,15.91
2019-04-26T13:07:27.521Z,15.98
2019-04-26T13:10:17.187Z,16.09
2019-04-26T13:12:50.050Z,16.00
2019-04-26T13:15:59.003Z,15.91
2019-04-26T13:18:29.419Z,15.88
2019-04-26T13:21:03.120Z,16.06
2019-04-26T13:23:34.298Z,16.18
2019-04-26T13:26:07.221Z,16.33
2019-04-26T13:28:36.890Z,16.32
2019-04-26T13:31:06.402Z,16.15
2019-04-26T13:33:39.490Z,16.16
2019-04-26T13:36:09.003Z,16.25
2019-04-26T13:38:43.599Z,16.24
2019-04-26T13:41:16.169Z,16.03
2019-04-26T13:43:45.655Z,15.90
2019-04-26T13:46:19.968Z,15.78
2019-04-26T13:48:53.893Z,15.75
2019-04-26T13:51:24.988Z,15.73
2019-04-26T13:53:54.512Z,15.59
2019-04-26T13:56:25.626Z,15.58
2019-04-26T13:58:58.304Z,15.54
2019-04-26T14:01:26.426Z,15.60
2019-04-26T14:03:55.925Z,15.43
2019-04-26T14:06:26.460Z,15.31
2019-04-26T14:08:58.108Z,15.19
2019-04-26T14:11:29.531Z,15.13
2019-04-26T14:14:03.596Z,14.92
2019-04-26T14:16:33.044Z,14.78
2019-04-26T14:19:04.417Z,14.74
2019-04-26T14:21:34.884Z,14.45
2019-04-26T14:24:24.007Z,14.36
2019-04-26T14:26:56.301Z,14.21
2019-04-26T14:29:28.522Z,13.94
2019-04-26T14:32:01.427Z,13.77
2019-04-26T14:34:36.099Z,13.72
2019-04-26T14:37:06.681Z,13.87
2019-04-26T14:39:49.754Z,13.95
2019-04-26T14:42:07.303Z,13.85
2019-04-26T14:44:48.958Z,13.75
2019-04-26T14:47:14.922Z,13.61
2019-04-26T14:49:42.835Z,13.61
2019-04-26T14:52:16.207Z,13.58
2019-04-26T14:54:47.535Z,13.50
2019-04-26T14:57:24.464Z,13.52
2019-04-26T15:00:00.572Z,13.44
2019-04-26T15:02:48.587Z,13.31
2019-04-26T15:05:22.759Z,13.08
2019-04-26T15:07:53.829Z,13.08
2019-04-26T15:10:27.297Z,13.13
2019-04-26T15:13:14.257Z,13.08
2019-04-26T15:15:34.675Z,13.10
2019-04-26T15:18:05.134Z,13.01
2019-04-26T15:20:34.841Z,13.01
2019-04-26T15:23:05.932Z,12.93
2019-04-26T15:25:36.813Z,13.12
2019-04-26T15:28:10.718Z,13.12
2019-04-26T15:30:43.206Z,13.00
2019-04-26T15:33:12.829Z,12.96
2019-04-26T15:35:42.241Z,13.00
2019-04-26T15:38:11.908Z,12.99
2019-04-26T15:40:44.581Z,13.02
2019-04-26T15:43:28.335Z,12.94
2019-04-26T15:46:08.111Z,12.99
2019-04-26T15:48:43.026Z,12.85
2019-04-26T15:51:14.356Z,12.95
2019-04-26T15:53:48.855Z,12.95
2019-04-26T15:56:17.670Z,12.84
2019-04-26T15:58:48.903Z,12.84
2019-04-26T16:01:17.548Z,12.71
2019-04-26T16:03:46.997Z,12.59
2019-04-26T16:06:16.463Z,12.59
2019-04-26T16:08:45.980Z,12.58
2019-04-26T16:11:15.576Z,12.56
2019-04-26T16:13:51.297Z,12.56
2019-04-26T16:16:20.639Z,12.62
2019-04-26T16:18:55.513Z,12.60
2019-04-26T16:21:22.059Z,12.65
2019-04-26T16:23:55.174Z,12.63
2019-04-26T16:26:22.954Z,12.67
2019-04-26T16:29:06.175Z,12.65
2019-04-26T16:31:53.454Z,12.64
2019-04-26T16:34:32.446Z,12.55
2019-04-26T16:37:03.057Z,12.54
2019-04-26T16:39:38.921Z,12.47
2019-04-26T16:42:07.511Z,12.47
2019-04-26T16:44:37.567Z,12.47
2019-04-26T16:47:07.064Z,12.48
2019-04-26T16:49:42.078Z,12.39
2019-04-26T16:52:07.728Z,12.39
2019-04-26T16:54:37.741Z,12.44
2019-04-26T16:57:11.472Z,12.46
2019-04-26T16:59:48.893Z,12.47
2019-04-26T17:02:20.928Z,12.51
2019-04-26T17:04:43.887Z,12.46
2019-04-26T17:07:13.983Z,12.42
2019-04-26T17:09:57.659Z,12.42
2019-04-26T17:12:36.551Z,12.37
2019-04-26T17:15:07.795Z,12.37
2019-04-26T17:17:41.153Z,12.37
2019-04-26T17:20:10.862Z,12.38
2019-04-26T17:22:58.586Z,12.37
2019-04-26T17:25:26.611Z,12.32
2019-04-26T17:27:54.399Z,12.38
2019-04-26T17:30:25.788Z,12.32
2019-04-26T17:32:55.447Z,12.33
2019-04-26T17:35:25.538Z,12.34
2019-04-26T17:37:57.422Z,12.35
2019-04-26T17:40:30.162Z,12.36
2019-04-26T17:42:57.848Z,12.36
2019-04-26T17:45:27.725Z,12.36
2019-04-26T17:47:58.757Z,12.41
2019-04-26T17:50:31.037Z,12.32
2019-04-26T17:53:00.661Z,12.32
2019-04-26T17:55:33.351Z,12.33
2019-04-26T17:58:12.020Z,12.33
2019-04-26T18:00:46.138Z,12.31
2019-04-26T18:03:13.205Z,12.28
2019-04-26T18:05:56.005Z,12.30
2019-04-26T18:08:33.263Z,12.33
2019-04-26T18:10:43.013Z,12.33
2019-04-26T18:13:16.305Z,12.36
2019-04-26T18:15:48.470Z,12.37
2019-04-26T18:18:18.290Z,12.39
2019-04-26T18:21:01.192Z,12.42
2019-04-26T18:23:30.779Z,12.45
2019-04-26T18:26:00.284Z,12.49
2019-04-26T18:28:29.752Z,12.52
2019-04-26T18:30:59.262Z,12.52
2019-04-26T18:33:28.738Z,12.48
2019-04-26T18:35:58.226Z,12.48
2019-04-26T18:38:27.916Z,12.45
2019-04-26T18:41:01.031Z,12.46
2019-04-26T18:43:28.576Z,12.38
2019-04-26T18:46:03.353Z,12.32
2019-04-26T18:48:35.479Z,12.29
2019-04-26T18:51:03.398Z,12.29
2019-04-26T18:53:39.444Z,12.27
2019-04-26T18:56:07.730Z,12.31
2019-04-26T18:58:38.574Z,12.31
2019-04-26T19:01:10.723Z,12.33
2019-04-26T19:03:40.178Z,12.33
2019-04-26T19:06:10.717Z,12.33
2019-04-26T19:08:47.593Z,12.28
2019-04-26T19:11:12.940Z,12.34
2019-04-26T19:14:01.729Z,12.34
2019-04-26T19:16:36.185Z,12.27
2019-04-26T19:19:15.376Z,12.30
2019-04-26T19:21:43.392Z,12.31
2019-04-26T19:24:19.515Z,12.31
2019-04-26T19:26:50.031Z,12.29
2019-04-26T19:29:31.112Z,12.29
2019-04-26T19:31:56.539Z,12.39
2019-04-26T19:34:30.260Z,12.39
2019-04-26T19:36:59.826Z,12.45
2019-04-26T19:39:35.072Z,12.46
2019-04-26T19:42:02.485Z,12.41
2019-04-26T19:44:34.818Z,12.40
2019-04-26T19:47:06.903Z,12.41
2019-04-26T19:49:44.029Z,12.43
2019-04-26T19:52:22.146Z,12.44
2019-04-26T19:54:53.550Z,12.40
2019-04-26T19:57:33.408Z,12.42
2019-04-26T20:00:03.804Z,12.45
2019-04-26T20:02:38.858Z,12.50
2019-04-26T20:05:06.570Z,12.50
2019-04-26T20:07:36.378Z,12.50
2019-04-26T20:10:06.954Z,12.48
2019-04-26T20:12:38.233Z,12.46
2019-04-26T20:15:09.103Z,12.44
2019-04-26T20:17:38.622Z,12.38
2019-04-26T20:20:19.024Z,12.38
2019-04-26T20:22:39.604Z,12.39
2019-04-26T20:25:11.918Z,12.36
2019-04-26T20:27:41.660Z,12.30
2019-04-26T20:30:13.062Z,12.24
2019-04-26T20:32:47.181Z,12.21
2019-04-26T20:35:26.785Z,12.23
2019-04-26T20:37:56.324Z,12.19
2019-04-26T20:40:25.689Z,12.18
2019-04-26T20:43:01.613Z,12.11
2019-04-26T20:45:41.125Z,12.05
2019-04-26T20:48:06.280Z,12.09
2019-04-26T20:50:42.982Z,12.10
2019-04-26T20:53:12.107Z,12.14
2019-04-26T20:55:42.750Z,12.19
2019-04-26T20:58:12.430Z,12.28
2019-04-26T21:00:54.056Z,12.25
2019-04-26T21:03:23.856Z,12.25
2019-04-26T21:05:53.069Z,12.31
2019-04-26T21:08:25.742Z,12.36
2019-04-26T21:10:56.058Z,12.37
2019-04-26T21:13:30.736Z,12.34
2019-04-26T21:15:58.449Z,12.37
2019-04-26T21:18:26.334Z,12.37
2019-04-26T21:20:55.928Z,12.38
2019-04-26T21:23:25.517Z,12.40
2019-04-26T21:26:02.978Z,12.41
2019-04-26T21:28:38.119Z,12.41
2019-04-26T21:31:19.559Z,12.40
2019-04-26T21:34:12.506Z,12.35
2019-04-26T21:36:59.377Z,12.37
2019-04-26T21:39:30.682Z,12.36
2019-04-26T21:42:04.996Z,12.33
2019-04-26T21:44:35.527Z,12.30
2019-04-26T21:47:05.218Z,12.24
2019-04-26T21:49:37.955Z,12.14
2019-04-26T21:52:08.392Z,12.14
2019-04-26T21:54:37.583Z,12.15
2019-04-26T21:57:07.039Z,12.11
2019-04-26T21:59:42.025Z,12.02
2019-04-26T22:02:17.877Z,11.95
2019-04-26T22:04:43.615Z,11.88
2019-04-26T22:07:14.571Z,11.98
2019-04-26T22:09:46.111Z,11.98
2019-04-26T22:12:16.549Z,11.92
2019-04-26T22:14:50.729Z,11.92
2019-04-26T22:17:22.061Z,11.89
2019-04-26T22:20:12.474Z,11.87
2019-04-26T22:22:41.493Z,11.91
2019-04-26T22:25:12.927Z,11.87
2019-04-26T22:27:43.703Z,11.87
2019-04-26T22:30:15.119Z,11.79
2019-04-26T22:32:44.549Z,11.79
2019-04-26T22:35:20.205Z,11.76
2019-04-26T22:37:48.053Z,11.75
2019-04-26T22:40:19.770Z,11.77
2019-04-26T22:42:50.751Z,11.76
2019-04-26T22:45:27.717Z,11.74
2019-04-26T22:48:03.551Z,11.71
2019-04-26T22:50:33.623Z,11.73
2019-04-26T22:53:04.338Z,11.76
2019-04-26T22:55:33.761Z,11.75
2019-04-26T22:58:04.973Z,11.73
2019-04-26T23:00:36.109Z,11.73
2019-04-26T23:03:07.281Z,11.73
2019-04-26T23:05:39.253Z,11.70
2019-04-26T23:08:08.984Z,11.71
2019-04-26T23:10:40.142Z,11.63
2019-04-26T23:13:27.807Z,11.64
2019-04-26T23:16:08.291Z,11.61
2019-04-26T23:18:38.690Z,11.56
2019-04-26T23:21:12.058Z,11.51
2019-04-26T23:23:42.757Z,11.51
2019-04-26T23:26:14.489Z,11.44
2019-04-26T23:28:44.078Z,11.42
2019-04-26T23:31:13.898Z,11.45
2019-04-26T23:33:43.389Z,11.47
2019-04-26T23:36:13.630Z,11.48
2019-04-26T23:38:43.902Z,11.46
2019-04-26T23:41:14.229Z,11.43
2019-04-26T23:43:43.818Z,11.41
2019-04-26T23:46:14.658Z,11.42
2019-04-26T23:48:48.774Z,11.41
2019-04-26T23:51:15.346Z,11.42
2019-04-26T23:53:44.885Z,11.40
2019-04-26T23:56:21.666Z,11.38
2019-04-26T23:58:47.182Z,11.39
